createdAt,value
2023-05-02T00:01:05.740Z,10.50
2023-05-02T00:03:33.517Z,12.68
2023-05-02T00:06:01.141Z,10.73
2023-05-02T00:08:28.684Z,9.00
2023-05-02T00:10:55.948Z,8.35
2023-05-02T00:13:23.276Z,10.13
2023-05-02T00:15:50.748Z,8.85
2023-05-02T00:18:18.124Z,8.27
2023-05-02T00:20:45.747Z,10.65
2023-05-02T00:23:13.432Z,10.45
2023-05-02T00:25:47.089Z,7.60
2023-05-02T00:28:14.324Z,10.55
2023-05-02T00:30:47.985Z,8.70
2023-05-02T00:33:15.898Z,10.43
2023-05-02T00:35:43.181Z,9.13
2023-05-02T00:38:10.592Z,9.88
2023-05-02T00:40:48.171Z,10.90
2023-05-02T00:43:16.015Z,10.73
2023-05-02T00:45:43.971Z,10.40
2023-05-02T00:48:11.504Z,9.48
2023-05-02T00:50:43.281Z,10.80
2023-05-02T00:53:11.491Z,9.32
2023-05-02T00:55:39.000Z,9.77
2023-05-02T00:58:09.556Z,9.38
2023-05-02T01:00:42.706Z,10.90
2023-05-02T01:03:22.954Z,11.32
2023-05-02T01:05:55.442Z,10.32
2023-05-02T01:08:42.921Z,9.80
2023-05-02T01:11:19.918Z,9.55
2023-05-02T01:13:47.848Z,9.48
2023-05-02T01:16:15.878Z,8.43
2023-05-02T01:18:44.219Z,9.32
2023-05-02T01:21:12.284Z,7.97
2023-05-02T01:23:44.619Z,7.93
2023-05-02T01:26:21.269Z,7.75
2023-05-02T01:29:02.073Z,9.00
2023-05-02T01:31:31.950Z,6.25
2023-05-02T01:34:00.814Z,7.70
2023-05-02T01:36:31.075Z,7.43
2023-05-02T01:38:59.208Z,8.40
2023-05-02T01:41:27.533Z,7.00
2023-05-02T01:43:56.090Z,7.20
2023-05-02T01:46:24.389Z,6.50
2023-05-02T01:48:59.010Z,7.97
2023-05-02T01:51:31.685Z,8.43
2023-05-02T01:54:05.091Z,7.93
2023-05-02T01:56:34.717Z,9.45
2023-05-02T01:59:03.204Z,9.02
2023-05-02T02:01:31.029Z,7.38
2023-05-02T02:04:00.045Z,7.95
2023-05-02T02:06:27.734Z,8.13
2023-05-02T02:08:55.151Z,8.63
2023-05-02T02:11:25.819Z,8.13
2023-05-02T02:13:56.026Z,6.90
2023-05-02T02:16:25.697Z,7.25
2023-05-02T02:18:54.865Z,7.63
2023-05-02T02:21:23.176Z,6.43
2023-05-02T02:23:51.825Z,7.00
2023-05-02T02:26:20.583Z,7.85
2023-05-02T02:28:48.625Z,7.00
2023-05-02T02:31:15.944Z,8.27
2023-05-02T02:33:44.250Z,8.10
2023-05-02T02:36:11.430Z,7.28
2023-05-02T02:39:03.691Z,6.20
2023-05-02T02:41:40.521Z,5.60
2023-05-02T02:44:14.927Z,6.07
2023-05-02T02:46:56.414Z,5.97
2023-05-02T02:49:27.041Z,5.60
2023-05-02T02:51:54.561Z,5.90
2023-05-02T02:54:30.798Z,5.43
2023-05-02T02:57:02.792Z,6.55
2023-05-02T02:59:41.179Z,6.07
2023-05-02T03:02:10.422Z,6.85
2023-05-02T03:04:42.140Z,5.88
2023-05-02T03:07:09.952Z,6.55
2023-05-02T03:09:47.826Z,5.93
2023-05-02T03:12:21.136Z,6.22
2023-05-02T03:14:49.728Z,6.38
2023-05-02T03:17:17.850Z,7.18
2023-05-02T03:19:47.156Z,7.00
2023-05-02T03:22:14.507Z,6.93
2023-05-02T03:24:41.695Z,5.55
2023-05-02T03:27:10.713Z,6.63
2023-05-02T03:29:41.678Z,6.50
2023-05-02T03:32:10.617Z,5.65
2023-05-02T03:34:39.444Z,6.75
2023-05-02T03:37:07.000Z,5.97
2023-05-02T03:39:34.463Z,7.30
2023-05-02T03:42:03.304Z,7.13
2023-05-02T03:44:30.640Z,6.07
2023-05-02T03:46:57.984Z,5.50
2023-05-02T03:49:25.265Z,7.00
2023-05-02T03:51:54.056Z,6.75
2023-05-02T03:54:27.892Z,6.22
2023-05-02T03:56:55.875Z,6.53
2023-05-02T03:59:32.860Z,6.57
2023-05-02T04:02:00.963Z,4.45
2023-05-02T04:04:38.696Z,5.13
2023-05-02T04:07:07.813Z,6.18
2023-05-02T04:09:35.106Z,4.93
2023-05-02T04:12:07.961Z,4.72
2023-05-02T04:14:38.620Z,4.55
2023-05-02T04:17:06.826Z,4.45
2023-05-02T04:19:44.827Z,4.25
2023-05-02T04:22:12.898Z,4.18
2023-05-02T04:24:45.341Z,5.22
2023-05-02T04:27:15.281Z,4.47
2023-05-02T04:29:43.201Z,4.68
2023-05-02T04:32:12.730Z,5.78
2023-05-02T04:34:40.677Z,4.50
2023-05-02T04:37:08.474Z,3.95
2023-05-02T04:39:36.617Z,4.68
2023-05-02T04:42:10.661Z,5.28
2023-05-02T04:44:45.281Z,5.05
2023-05-02T04:47:13.914Z,6.15
2023-05-02T04:49:41.607Z,4.50
2023-05-02T04:52:08.875Z,5.10
2023-05-02T04:54:36.424Z,4.97
2023-05-02T04:57:06.486Z,6.45
2023-05-02T04:59:38.436Z,4.80
2023-05-02T05:02:08.237Z,4.63
2023-05-02T05:04:36.453Z,6.13
2023-05-02T05:07:04.332Z,4.85
2023-05-02T05:09:32.079Z,6.65
2023-05-02T05:11:59.460Z,6.43
2023-05-02T05:14:26.758Z,6.63
2023-05-02T05:16:56.481Z,6.32
2023-05-02T05:19:23.964Z,7.15
2023-05-02T05:21:51.714Z,7.18
2023-05-02T05:24:20.430Z,8.02
2023-05-02T05:26:48.983Z,7.45
2023-05-02T05:29:18.114Z,8.13
2023-05-02T05:31:45.487Z,7.45
2023-05-02T05:34:15.940Z,8.23
2023-05-02T05:36:44.756Z,6.07
2023-05-02T05:39:13.058Z,6.93
2023-05-02T05:41:43.134Z,7.35
2023-05-02T05:44:12.206Z,6.68
2023-05-02T05:46:39.565Z,5.53
2023-05-02T05:49:08.975Z,4.82
2023-05-02T05:51:37.080Z,5.20
2023-05-02T05:54:04.728Z,5.03
2023-05-02T05:56:32.296Z,4.95
2023-05-02T05:59:07.211Z,5.32
2023-05-02T06:01:35.906Z,4.13
2023-05-02T06:04:05.120Z,3.97
2023-05-02T06:06:34.359Z,2.42
2023-05-02T06:09:03.266Z,2.80
2023-05-02T06:11:32.008Z,3.25
2023-05-02T06:13:59.468Z,1.60
2023-05-02T06:16:26.817Z,2.25
2023-05-02T06:18:54.040Z,1.65
2023-05-02T06:21:21.335Z,1.95
2023-05-02T06:23:48.654Z,1.52
2023-05-02T06:26:16.554Z,1.13
2023-05-02T06:28:44.303Z,1.30
2023-05-02T06:31:11.554Z,1.23
2023-05-02T06:33:38.891Z,0.90
2023-05-02T06:36:06.222Z,1.10
2023-05-02T06:38:33.432Z,1.13
2023-05-02T06:41:00.807Z,1.10
2023-05-02T06:43:28.257Z,0.93
2023-05-02T06:45:56.406Z,1.10
2023-05-02T06:48:23.784Z,0.80
2023-05-02T06:50:53.913Z,1.77
2023-05-02T06:53:21.208Z,1.52
2023-05-02T06:55:49.217Z,2.08
2023-05-02T06:58:16.559Z,1.02
2023-05-02T07:00:43.840Z,1.40
2023-05-02T07:03:11.467Z,0.93
2023-05-02T07:05:38.916Z,2.03
2023-05-02T07:08:06.538Z,2.13
2023-05-02T07:10:34.060Z,2.33
2023-05-02T07:13:01.411Z,2.30
2023-05-02T07:15:28.658Z,1.77
2023-05-02T07:17:55.911Z,1.67
2023-05-02T07:20:23.609Z,1.65
2023-05-02T07:22:51.259Z,2.15
2023-05-02T07:25:18.715Z,2.00
2023-05-02T07:27:46.338Z,2.20
2023-05-02T07:30:13.947Z,1.42
2023-05-02T07:32:41.377Z,1.45
2023-05-02T07:35:09.714Z,1.67
2023-05-02T07:37:37.220Z,1.10
2023-05-02T07:40:04.947Z,1.92
2023-05-02T07:42:32.759Z,1.52
2023-05-02T07:45:00.450Z,1.08
2023-05-02T07:47:27.747Z,2.28
2023-05-02T07:49:55.495Z,1.38
2023-05-02T07:52:22.938Z,1.42
2023-05-02T07:54:50.432Z,1.30
2023-05-02T07:57:17.908Z,1.10
2023-05-02T07:59:45.386Z,1.10
2023-05-02T08:02:13.919Z,1.65
2023-05-02T08:04:41.834Z,1.48
2023-05-02T08:07:09.366Z,1.50
2023-05-02T08:10:01.738Z,1.83
2023-05-02T08:12:29.452Z,1.83
2023-05-02T08:14:56.755Z,1.48
2023-05-02T08:17:24.214Z,1.90
2023-05-02T08:19:51.561Z,2.28
2023-05-02T08:22:18.680Z,2.33
2023-05-02T08:24:45.880Z,2.55
2023-05-02T08:27:13.134Z,2.15
2023-05-02T08:29:40.513Z,2.45
2023-05-02T08:32:08.025Z,2.33
2023-05-02T08:34:35.577Z,2.60
2023-05-02T08:37:02.952Z,2.65
2023-05-02T08:39:33.805Z,2.50
2023-05-02T08:42:01.534Z,3.28
2023-05-02T08:44:28.959Z,2.42
2023-05-02T08:46:56.814Z,2.80
2023-05-02T08:49:25.209Z,2.47
2023-05-02T08:51:53.042Z,2.72
2023-05-02T08:54:21.153Z,2.67
2023-05-02T08:56:48.662Z,3.05
2023-05-02T08:59:15.918Z,2.47
2023-05-02T09:01:46.393Z,2.97
2023-05-02T09:04:14.667Z,2.75
2023-05-02T09:06:42.109Z,2.53
2023-05-02T09:09:09.497Z,1.67
2023-05-02T09:11:37.420Z,1.70
2023-05-02T09:14:14.517Z,1.77
2023-05-02T09:16:41.903Z,1.67
2023-05-02T09:19:09.382Z,1.35
2023-05-02T09:21:39.984Z,1.55
2023-05-02T09:24:21.213Z,2.10
2023-05-02T09:27:13.020Z,1.58
2023-05-02T09:30:09.213Z,1.95
2023-05-02T09:32:46.669Z,1.63
2023-05-02T09:35:24.055Z,1.88
2023-05-02T09:37:54.330Z,2.22
2023-05-02T09:40:23.347Z,2.38
2023-05-02T09:42:50.908Z,1.70
2023-05-02T09:45:25.208Z,1.65
2023-05-02T09:47:53.316Z,1.85
2023-05-02T09:50:36.727Z,1.50
2023-05-02T09:53:04.910Z,1.98
2023-05-02T09:55:32.439Z,2.17
2023-05-02T09:58:08.703Z,2.08
2023-05-02T10:00:40.526Z,2.25
2023-05-02T10:03:11.332Z,1.80
2023-05-02T10:05:39.594Z,2.75
2023-05-02T10:08:07.515Z,1.85
2023-05-02T10:10:37.200Z,1.88
2023-05-02T10:13:05.369Z,2.63
2023-05-02T10:15:34.051Z,1.63
2023-05-02T10:18:02.187Z,1.90
2023-05-02T10:20:35.730Z,2.33
2023-05-02T10:25:30.612Z,1.85
2023-05-02T10:27:59.340Z,1.40
2023-05-02T10:30:27.314Z,1.95
2023-05-02T10:32:54.793Z,1.23
2023-05-02T10:35:22.201Z,1.58
2023-05-02T10:37:49.763Z,1.75
2023-05-02T10:40:17.173Z,1.40
2023-05-02T10:42:46.207Z,1.48
2023-05-02T10:45:14.647Z,1.80
2023-05-02T10:47:42.134Z,1.58
2023-05-02T10:50:09.482Z,1.50
2023-05-02T10:52:38.509Z,1.60
2023-05-02T10:55:19.854Z,1.70
2023-05-02T10:57:59.426Z,1.58
2023-05-02T11:00:31.045Z,2.25
2023-05-02T11:02:58.581Z,1.80
2023-05-02T11:05:26.752Z,2.75
2023-05-02T11:08:12.666Z,2.03
2023-05-02T11:10:39.901Z,1.77
2023-05-02T11:13:07.175Z,2.15
2023-05-02T11:15:35.252Z,2.17
2023-05-02T11:18:09.612Z,2.25
2023-05-02T11:20:39.420Z,2.20
2023-05-02T11:23:21.777Z,2.72
2023-05-02T11:25:49.977Z,1.80
2023-05-02T11:28:36.186Z,1.60
2023-05-02T11:31:03.841Z,1.98
2023-05-02T11:33:31.304Z,1.77
2023-05-02T11:35:58.838Z,1.60
2023-05-02T11:38:26.958Z,2.13
2023-05-02T11:40:58.464Z,2.50
2023-05-02T11:43:28.237Z,1.35
2023-05-02T11:45:59.789Z,1.83
2023-05-02T11:48:27.780Z,2.35
2023-05-02T11:51:02.086Z,2.15
2023-05-02T11:53:30.231Z,2.38
2023-05-02T11:55:58.498Z,1.50
2023-05-02T11:58:30.044Z,1.98
2023-05-02T12:00:57.451Z,1.60
2023-05-02T12:03:27.708Z,1.90
2023-05-02T12:05:55.430Z,1.75
2023-05-02T12:08:27.333Z,1.65
2023-05-02T12:10:55.622Z,1.17
2023-05-02T12:13:26.959Z,1.50
2023-05-02T12:15:55.027Z,2.33
2023-05-02T12:18:26.999Z,1.60
2023-05-02T12:20:55.430Z,1.58
2023-05-02T12:23:23.888Z,1.67
2023-05-02T12:25:51.366Z,1.77
2023-05-02T12:28:23.925Z,1.95
2023-05-02T12:30:52.239Z,1.90
2023-05-02T12:33:19.667Z,1.50
2023-05-02T12:35:47.413Z,1.98
2023-05-02T12:38:20.265Z,1.92
2023-05-02T12:40:48.978Z,2.00
2023-05-02T12:43:16.421Z,2.10
2023-05-02T12:45:43.829Z,2.05
2023-05-02T12:48:27.438Z,2.30
2023-05-02T12:50:55.417Z,1.85
2023-05-02T12:53:43.763Z,1.45
2023-05-02T12:56:11.693Z,1.58
2023-05-02T12:58:46.888Z,1.80
2023-05-02T13:01:17.391Z,2.10
2023-05-02T13:03:45.031Z,1.90
2023-05-02T13:06:12.405Z,1.60
2023-05-02T13:08:39.730Z,1.70
2023-05-02T13:11:06.933Z,2.15
2023-05-02T13:13:35.326Z,1.95
2023-05-02T13:16:03.544Z,2.05
2023-05-02T13:18:31.046Z,2.33
2023-05-02T13:20:58.397Z,1.90
2023-05-02T13:23:25.895Z,2.17
2023-05-02T13:25:53.263Z,2.22
2023-05-02T13:28:20.608Z,2.30
2023-05-02T13:30:47.916Z,1.73
2023-05-02T13:33:15.314Z,2.33
2023-05-02T13:35:42.774Z,2.03
2023-05-02T13:38:10.154Z,2.17
2023-05-02T13:40:37.471Z,2.30
2023-05-02T13:43:05.204Z,2.20
2023-05-02T13:45:32.467Z,1.52
2023-05-02T13:47:59.681Z,1.80
2023-05-02T13:50:26.862Z,1.95
2023-05-02T13:52:54.084Z,1.73
2023-05-02T13:55:21.540Z,1.90
2023-05-02T13:57:49.768Z,1.92
2023-05-02T14:00:17.735Z,2.25
2023-05-02T14:02:48.373Z,1.55
2023-05-02T14:05:15.975Z,1.85
2023-05-02T14:07:43.197Z,2.08
2023-05-02T14:10:11.836Z,1.75
2023-05-02T14:12:39.038Z,2.22
2023-05-02T14:15:06.631Z,1.67
2023-05-02T14:17:34.014Z,1.83
2023-05-02T14:20:01.630Z,1.95
2023-05-02T14:22:29.162Z,1.80
2023-05-02T14:24:56.438Z,1.55
2023-05-02T14:27:23.923Z,1.67
2023-05-02T14:29:51.268Z,1.77
2023-05-02T14:32:18.497Z,2.03
2023-05-02T14:34:45.912Z,2.20
2023-05-02T14:37:13.244Z,2.17
2023-05-02T14:39:42.416Z,2.28
2023-05-02T14:42:09.815Z,1.90
2023-05-02T14:44:38.719Z,1.58
2023-05-02T14:47:06.041Z,2.22
2023-05-02T14:49:34.378Z,1.70
2023-05-02T14:52:01.971Z,2.05
2023-05-02T14:54:30.330Z,2.13
2023-05-02T14:56:57.884Z,1.98
2023-05-02T14:59:25.324Z,1.80
2023-05-02T15:01:53.071Z,2.10
2023-05-02T15:04:20.669Z,2.22
2023-05-02T15:06:48.373Z,2.53
2023-05-02T15:09:16.146Z,2.10
2023-05-02T15:11:44.646Z,2.83
2023-05-02T15:14:12.145Z,2.08
2023-05-02T15:16:39.712Z,2.15
2023-05-02T15:19:07.205Z,2.03
2023-05-02T15:21:35.341Z,1.80
2023-05-02T15:24:03.748Z,2.28
2023-05-02T15:26:31.252Z,2.00
2023-05-02T15:28:58.663Z,2.67
2023-05-02T15:31:26.117Z,2.20
2023-05-02T15:33:53.581Z,2.03
2023-05-02T15:36:21.194Z,1.98
2023-05-02T15:38:48.500Z,2.03
2023-05-02T15:41:16.004Z,2.80
2023-05-02T15:43:43.454Z,1.70
2023-05-02T15:46:11.692Z,2.10
2023-05-02T15:48:39.144Z,2.25
2023-05-02T15:51:06.526Z,1.80
2023-05-02T15:53:34.699Z,2.10
2023-05-02T15:56:02.057Z,2.53
2023-05-02T15:58:29.448Z,2.40
2023-05-02T16:00:56.737Z,2.75
2023-05-02T16:03:24.486Z,2.33
2023-05-02T16:05:54.025Z,2.58
2023-05-02T16:08:21.698Z,1.73
2023-05-02T16:10:49.034Z,2.50
2023-05-02T16:13:16.327Z,2.20
2023-05-02T16:15:43.877Z,2.63
2023-05-02T16:18:11.444Z,2.47
2023-05-02T16:20:39.903Z,2.38
2023-05-02T16:23:07.118Z,2.47
2023-05-02T16:25:34.446Z,2.72
2023-05-02T16:28:01.938Z,2.30
2023-05-02T16:30:29.482Z,2.53
2023-05-02T16:32:56.783Z,2.25
2023-05-02T16:35:24.309Z,2.30
2023-05-02T16:37:51.672Z,2.70
2023-05-02T16:40:19.150Z,2.42
2023-05-02T16:42:46.496Z,2.30
2023-05-02T16:45:14.577Z,2.22
2023-05-02T16:47:41.978Z,2.05
2023-05-02T16:50:09.441Z,2.30
2023-05-02T16:52:38.209Z,2.60
2023-05-02T16:55:06.370Z,1.77
2023-05-02T16:57:33.851Z,2.30
2023-05-02T17:00:02.752Z,2.83
2023-05-02T17:02:30.301Z,2.55
2023-05-02T17:04:57.710Z,1.90
2023-05-02T17:07:25.004Z,2.97
2023-05-02T17:09:52.795Z,2.90
2023-05-02T17:12:22.793Z,1.75
2023-05-02T17:14:50.554Z,2.17
2023-05-02T17:17:19.960Z,2.10
2023-05-02T17:19:48.261Z,1.67
2023-05-02T17:22:15.837Z,2.13
2023-05-02T17:24:45.439Z,2.15
2023-05-02T17:27:13.000Z,2.78
2023-05-02T17:29:40.393Z,1.92
2023-05-02T17:32:07.712Z,1.88
2023-05-02T17:34:36.682Z,2.50
2023-05-02T17:37:04.031Z,1.95
2023-05-02T17:39:31.503Z,1.70
2023-05-02T17:41:59.838Z,1.55
2023-05-02T17:44:27.047Z,2.30
2023-05-02T17:46:55.346Z,2.10
2023-05-02T17:49:22.887Z,1.70
2023-05-02T17:51:50.448Z,1.65
2023-05-02T17:54:17.752Z,1.83
2023-05-02T17:56:45.032Z,2.17
2023-05-02T17:59:12.316Z,2.03
2023-05-02T18:01:40.037Z,2.30
2023-05-02T18:04:07.788Z,2.00
2023-05-02T18:06:35.360Z,1.98
2023-05-02T18:09:02.647Z,3.42
2023-05-02T18:11:39.827Z,2.38
2023-05-02T18:14:07.210Z,2.65
2023-05-02T18:16:36.246Z,2.72
2023-05-02T18:19:03.946Z,2.08
2023-05-02T18:21:33.916Z,1.88
2023-05-02T18:24:01.249Z,2.80
2023-05-02T18:26:28.523Z,2.20
2023-05-02T18:28:55.815Z,2.33
2023-05-02T18:31:24.166Z,2.55
2023-05-02T18:33:53.663Z,3.78
2023-05-02T18:36:28.863Z,2.15
2023-05-02T18:38:56.575Z,2.40
2023-05-02T18:41:24.003Z,2.40
2023-05-02T18:43:51.366Z,1.77
2023-05-02T18:46:18.801Z,1.95
2023-05-02T18:48:46.357Z,2.50
2023-05-02T18:51:13.811Z,2.67
2023-05-02T18:53:41.088Z,1.88
2023-05-02T18:56:14.750Z,2.20
2023-05-02T18:58:42.885Z,2.15
2023-05-02T19:01:14.751Z,2.28
2023-05-02T19:03:43.507Z,2.88
2023-05-02T19:06:11.312Z,2.70
2023-05-02T19:08:40.189Z,3.58
2023-05-02T19:11:08.948Z,2.25
2023-05-02T19:13:36.256Z,2.42
2023-05-02T19:16:03.700Z,2.60
2023-05-02T19:18:31.119Z,2.40
2023-05-02T19:20:58.608Z,2.38
2023-05-02T19:23:25.873Z,1.88
2023-05-02T19:25:53.287Z,2.38
2023-05-02T19:28:20.869Z,2.25
2023-05-02T19:30:48.164Z,2.85
2023-05-02T19:33:15.688Z,3.45
2023-05-02T19:35:43.066Z,2.75
2023-05-02T19:38:10.472Z,2.25
2023-05-02T19:40:37.665Z,2.55
2023-05-02T19:43:04.925Z,2.45
2023-05-02T19:45:32.316Z,2.58
2023-05-02T19:47:59.476Z,1.92
2023-05-02T19:50:26.864Z,2.30
2023-05-02T19:52:53.997Z,2.47
2023-05-02T19:55:21.355Z,2.10
2023-05-02T19:57:48.802Z,2.67
2023-05-02T20:00:16.308Z,2.08
2023-05-02T20:02:45.149Z,2.58
2023-05-02T20:05:12.695Z,2.80
2023-05-02T20:07:40.145Z,2.80
2023-05-02T20:10:07.903Z,2.63
2023-05-02T20:12:35.198Z,2.47
2023-05-02T20:15:02.726Z,2.30
2023-05-02T20:17:30.106Z,2.72
2023-05-02T20:19:57.497Z,2.53
2023-05-02T20:22:24.715Z,2.20
2023-05-02T20:24:52.066Z,2.78
2023-05-02T20:27:19.339Z,2.50
2023-05-02T20:29:46.585Z,2.80
2023-05-02T20:32:13.967Z,2.55
2023-05-02T20:34:41.292Z,2.55
2023-05-02T20:37:10.095Z,2.75
2023-05-02T20:39:37.711Z,2.80
2023-05-02T20:42:05.660Z,2.65
2023-05-02T20:44:36.443Z,2.22
2023-05-02T20:47:04.002Z,2.65
2023-05-02T20:49:32.372Z,2.03
2023-05-02T20:52:03.908Z,3.33
2023-05-02T20:54:31.430Z,2.58
2023-05-02T20:56:58.757Z,2.72
2023-05-02T20:59:26.090Z,3.13
2023-05-02T21:01:53.408Z,2.28
2023-05-02T21:04:20.888Z,2.20
2023-05-02T21:06:48.226Z,2.63
2023-05-02T21:09:17.627Z,2.55
2023-05-02T21:11:45.885Z,2.40
2023-05-02T21:14:13.173Z,2.03
2023-05-02T21:16:40.394Z,2.50
2023-05-02T21:19:07.702Z,2.35
2023-05-02T21:21:35.167Z,3.08
2023-05-02T21:24:03.963Z,2.60
2023-05-02T21:26:31.568Z,2.53
2023-05-02T21:28:58.966Z,2.38
2023-05-02T21:31:26.412Z,2.25
2023-05-02T21:33:53.788Z,1.95
2023-05-02T21:36:20.978Z,2.08
2023-05-02T21:38:48.308Z,2.47
2023-05-02T21:41:15.555Z,4.07
2023-05-02T21:43:42.951Z,2.72
2023-05-02T21:46:13.322Z,2.08
2023-05-02T21:48:40.763Z,1.85
2023-05-02T21:51:08.701Z,1.70
2023-05-02T21:53:36.096Z,2.13
2023-05-02T21:56:03.414Z,2.20
2023-05-02T21:58:30.754Z,1.95
2023-05-02T22:00:58.646Z,1.50
2023-05-02T22:03:27.207Z,1.58
2023-05-02T22:05:54.633Z,1.40
2023-05-02T22:08:21.945Z,1.48
2023-05-02T22:10:49.142Z,1.17
2023-05-02T22:13:16.455Z,2.05
2023-05-02T22:15:45.452Z,1.63
2023-05-02T22:18:14.096Z,1.38
2023-05-02T22:20:45.213Z,1.20
2023-05-02T22:23:13.157Z,1.38
2023-05-02T22:25:41.974Z,1.20
2023-05-02T22:28:12.301Z,1.35
2023-05-02T22:30:43.175Z,1.42
2023-05-02T22:33:10.878Z,2.25
2023-05-02T22:35:38.569Z,1.30
2023-05-02T22:38:08.743Z,2.35
2023-05-02T22:40:36.210Z,1.42
2023-05-02T22:43:03.699Z,1.38
2023-05-02T22:45:31.091Z,1.42
2023-05-02T22:47:58.474Z,1.40
2023-05-02T22:50:26.195Z,1.42
2023-05-02T22:52:56.981Z,1.00
2023-05-02T22:55:24.694Z,1.52
2023-05-02T22:57:52.377Z,1.00
2023-05-02T23:00:19.752Z,1.90
2023-05-02T23:02:47.135Z,1.08
2023-05-02T23:05:14.537Z,1.83
2023-05-02T23:07:42.100Z,2.22
2023-05-02T23:10:09.696Z,1.63
2023-05-02T23:12:36.863Z,1.60
2023-05-02T23:15:04.293Z,1.70
2023-05-02T23:17:31.603Z,1.25
2023-05-02T23:19:58.994Z,1.35
2023-05-02T23:22:26.204Z,1.20
2023-05-02T23:24:53.792Z,1.30
2023-05-02T23:27:21.092Z,1.70
2023-05-02T23:29:49.133Z,1.73
2023-05-02T23:32:16.985Z,1.90
2023-05-02T23:34:44.704Z,1.73
2023-05-02T23:37:12.814Z,1.38
2023-05-02T23:39:40.229Z,1.70
2023-05-02T23:42:07.646Z,1.70
2023-05-02T23:44:34.920Z,1.48
2023-05-02T23:47:02.213Z,1.70
2023-05-02T23:49:29.497Z,1.52
2023-05-02T23:51:56.825Z,1.73
2023-05-02T23:54:24.644Z,1.40
2023-05-02T23:56:53.848Z,1.90
2023-05-02T23:59:21.096Z,1.77
